Sarasota, FL

03:01 EDT le 03 septembre 2014 (GMT -0400)
THE MEADOWS | Change Station
CLOSE
Current Station
Stations météorologiques personnelles
Location: Sarasota, FL
Altitude: 39 ft
Stations météo à proximité

Alt. 39 ft 27.36 °N, 82.47 °W | Updated 5 minutes ago

Clear
Ciel dégagé
73.4 ° F
Paraît 73.4 ° F
N
0.0
Vent Variable Vent de SE
Gusts 2.0 mph

Aujourd'hui
Haut(e) -- | Bas -- ° F
--% Risque de précip.
Hier
Haut(e) -- | Bas -- ° F
Precip. -- pouce
7:09 AM 7:48 PM
Premier quartier, 59% visible
Pression 29.99 pouce
Visibilité 10.0 Miles terrestres
Nuages Ciel dégagé
Point de rosée 73 ° F
Humidité 97%
Précipitations 0.00 pouce
Profondeur de la couche neigeuse Non disponible.
UV 0 sur 12
Pollen 5.20 sur 12
Qualité de l'air Non disponible.
Flu Activity Non disponible.
METAR KSRQ 030653Z AUTO 14005KT 10SM CLR 27/23 A2998 RMK AO2 SLP153 T02720228 $

More Conditions Fewer Conditions

Pression 29.99 pouce
Visibilité 10.0 Miles terrestres
Nuages Ciel dégagé
Point de rosée 73 ° F
Humidité 97%
Précipitations 0.00 pouce
Profondeur de la couche neigeuse Non disponible.
UV 0 sur 12
Pollen 5.20 sur 12
Qualité de l'air Non disponible.
Flu Activity Non disponible.
METAR KSRQ 030653Z AUTO 14005KT 10SM CLR 27/23 A2998 RMK AO2 SLP153 T02720228 $

More Conditions Fewer Conditions

10-Day Weather Forecast

Almanac

Astronomie

Sep. 03, 2014 Lever Coucher
Temps réel 07:09 EDT 19:48 EDT
Crépuscule civil 06:46 EDT 20:11 EDT
Crépuscule nautique 06:18 EDT 20:39 EDT
Crépuscule astronomique 05:50 EDT 21:07 EDT
Lune 15:12 EDT 01:19 EDT
Durée de lumière visible 13h 25m
Longueur du jour
12h 38m
Tomorrow will be 1m 33s shorter.
Premier quartier, 59% of the Moon is Illuminated
Aujourd'hui
Premier quartier
Sep 8
Pleine lune
Sep 15
Dernier quartier
Sep 24
Nouveau
Oct 1
Premier quartier

Extrêmes aujourd'hui

State Highs State Lows

Community

WunderPhotos

Upload Photos

1,749,888 Photos téléchargées !

Nearby

Épaisseur de neige

Station Depth Altitude
Pas de nouvelles chutes de neige

Activité sismique

Ville Distance Mag. Time & Date
No recent earthquake activity has been reported nearby.
Minimum magnitude displayed is 2.5.

Températures des eaux côtières

Lieu Température
Clearwater Beach, FL 88.0 ° F
Port Manatee, FL 88.0 ° F
St Petersburg, FL 91.0 ° F
Old Port Tampa, FL 88.0 ° F
McKay Bay Entrance, FL 89.1 ° F

Stations météo à proximité